createdAt,value
2018-04-30T00:01:49.534Z,96684.30
2018-04-30T00:04:17.086Z,96680.97
2018-04-30T00:06:44.526Z,96686.91
2018-04-30T00:09:12.000Z,96699.49
2018-04-30T00:11:39.444Z,96706.32
2018-04-30T00:14:07.090Z,96717.63
2018-04-30T00:16:34.548Z,96721.70
2018-04-30T00:19:02.007Z,96730.21
2018-04-30T00:21:29.462Z,96743.48
2018-04-30T00:23:56.922Z,96748.44
2018-04-30T00:26:24.379Z,96747.53
2018-04-30T00:28:51.916Z,96750.08
2018-04-30T00:31:19.425Z,96751.61
2018-04-30T00:33:46.876Z,96758.58
2018-04-30T00:36:14.344Z,96769.47
2018-04-30T00:38:41.798Z,96780.40
2018-04-30T00:41:09.256Z,96781.66
2018-04-30T00:43:36.710Z,96783.48
2018-04-30T00:46:04.150Z,96782.21
2018-04-30T00:48:31.594Z,96774.35
2018-04-30T00:50:59.053Z,96785.52
2018-04-30T00:53:26.514Z,96798.63
2018-04-30T00:55:53.999Z,96796.11
2018-04-30T00:58:21.455Z,96805.16
2018-04-30T01:00:48.898Z,96806.57
2018-04-30T01:03:16.348Z,96815.23
2018-04-30T01:05:43.791Z,96821.66
2018-04-30T01:08:11.230Z,96820.55
2018-04-30T01:10:38.661Z,96825.21
2018-04-30T01:13:06.098Z,96818.11
2018-04-30T01:15:33.536Z,96817.08
2018-04-30T01:18:00.961Z,96820.77
2018-04-30T01:20:28.411Z,96820.56
2018-04-30T01:22:55.854Z,96830.30
2018-04-30T01:25:23.307Z,96833.16
2018-04-30T01:27:50.781Z,96834.84
2018-04-30T01:30:18.205Z,96838.37
2018-04-30T01:32:45.750Z,96842.10
2018-04-30T01:35:13.189Z,96841.28
2018-04-30T01:37:40.644Z,96855.28
2018-04-30T01:40:08.081Z,96860.61
2018-04-30T01:42:35.561Z,96862.09
2018-04-30T01:45:03.035Z,96852.53
2018-04-30T01:47:30.483Z,96861.61
2018-04-30T01:49:57.951Z,96864.00
2018-04-30T01:52:25.388Z,96873.88
2018-04-30T01:54:52.924Z,96871.40
2018-04-30T01:57:20.409Z,96883.30
2018-04-30T01:59:48.762Z,96891.41
2018-04-30T02:02:16.201Z,96899.67
2018-04-30T02:04:43.662Z,96896.95
2018-04-30T02:07:11.093Z,96908.82
2018-04-30T02:09:38.635Z,96914.42
2018-04-30T02:12:06.077Z,96920.05
2018-04-30T02:14:33.622Z,96908.81
2018-04-30T02:17:01.183Z,96906.67
2018-04-30T02:19:28.762Z,96906.26
2018-04-30T02:21:56.225Z,96907.91
2018-04-30T02:24:23.675Z,96930.63
2018-04-30T02:26:51.125Z,96931.28
2018-04-30T02:29:18.556Z,96927.23
2018-04-30T02:31:46.070Z,96938.44
2018-04-30T02:34:13.606Z,96943.41
2018-04-30T02:36:41.052Z,96944.50
2018-04-30T02:39:08.495Z,96947.34
2018-04-30T02:41:35.950Z,96950.08
2018-04-30T02:44:03.411Z,96955.96
2018-04-30T02:46:30.864Z,96968.84
2018-04-30T02:48:58.355Z,96974.64
2018-04-30T02:51:25.806Z,96968.00
2018-04-30T02:53:53.255Z,96965.31
2018-04-30T02:56:20.793Z,96973.28
2018-04-30T02:58:48.243Z,96976.45
2018-04-30T03:01:15.686Z,96980.69
2018-04-30T03:03:43.124Z,96985.59
2018-04-30T03:06:10.552Z,96994.61
2018-04-30T03:08:38.002Z,96993.55
2018-04-30T03:11:05.501Z,97010.11
2018-04-30T03:13:32.946Z,97028.11
2018-04-30T03:16:00.438Z,97034.36
2018-04-30T03:18:27.917Z,97034.53
2018-04-30T03:20:55.358Z,97036.23
2018-04-30T03:23:22.799Z,97049.05
2018-04-30T03:25:50.243Z,97058.00
2018-04-30T03:28:17.710Z,97063.98
2018-04-30T03:30:45.143Z,97082.91
2018-04-30T03:33:12.614Z,97114.15
2018-04-30T03:35:40.051Z,97111.95
2018-04-30T03:38:07.573Z,97112.80
2018-04-30T03:40:35.025Z,97122.52
2018-04-30T03:43:02.497Z,97114.23
2018-04-30T03:45:29.930Z,97122.70
2018-04-30T03:47:57.363Z,97131.39
2018-04-30T03:50:24.802Z,97143.20
2018-04-30T03:52:52.260Z,97149.42
2018-04-30T03:55:19.705Z,97145.34
2018-04-30T03:57:47.137Z,97147.59
2018-04-30T04:00:26.403Z,97138.19
2018-04-30T04:03:05.570Z,97142.30
2018-04-30T04:05:44.789Z,97149.72
2018-04-30T04:08:12.217Z,97149.55
2018-04-30T04:10:39.657Z,97154.67
2018-04-30T04:13:07.118Z,97159.05
2018-04-30T04:15:34.554Z,97161.78
2018-04-30T04:18:01.986Z,97157.16
2018-04-30T04:20:29.422Z,97168.67
2018-04-30T04:22:56.878Z,97165.37
2018-04-30T04:25:24.378Z,97168.73
2018-04-30T04:27:51.838Z,97169.73
2018-04-30T04:30:19.282Z,97167.42
2018-04-30T04:32:46.737Z,97176.06
2018-04-30T04:35:14.199Z,97172.50
2018-04-30T04:37:41.654Z,97165.75
2018-04-30T04:40:09.097Z,97167.55
2018-04-30T04:42:36.573Z,97161.19
2018-04-30T04:45:04.038Z,97151.80
2018-04-30T04:47:31.519Z,97154.50
2018-04-30T04:49:58.983Z,97151.73
2018-04-30T04:52:26.432Z,97154.14
2018-04-30T04:54:53.909Z,97155.95
2018-04-30T04:57:21.377Z,97160.72
2018-04-30T04:59:48.952Z,97153.44
2018-04-30T05:02:16.418Z,97149.95
2018-04-30T05:04:43.873Z,97151.80
2018-04-30T05:07:11.331Z,97162.53
2018-04-30T05:09:38.785Z,97167.70
2018-04-30T05:12:06.276Z,97171.03
2018-04-30T05:14:33.749Z,97169.27
2018-04-30T05:17:01.181Z,97181.34
2018-04-30T05:19:28.625Z,97175.28
2018-04-30T05:21:56.093Z,97176.72
2018-04-30T05:24:23.540Z,97165.91
2018-04-30T05:26:51.041Z,97170.42
2018-04-30T05:29:18.557Z,97163.67
2018-04-30T05:31:45.998Z,97161.75
2018-04-30T05:34:13.437Z,97172.95
2018-04-30T05:36:40.960Z,97171.36
2018-04-30T05:39:08.412Z,97182.25
2018-04-30T05:41:35.873Z,97189.28
2018-04-30T05:44:03.344Z,97188.96
2018-04-30T05:46:30.792Z,97203.08
2018-04-30T05:48:58.333Z,97225.13
2018-04-30T05:51:25.787Z,97230.47
2018-04-30T05:53:53.239Z,97223.01
2018-04-30T05:56:20.677Z,97238.42
2018-04-30T05:58:48.124Z,97233.86
2018-04-30T06:01:15.617Z,97244.09
2018-04-30T06:03:43.055Z,97230.73
2018-04-30T06:06:10.513Z,97210.41
2018-04-30T06:08:37.946Z,97196.38
2018-04-30T06:11:05.415Z,97193.20
2018-04-30T06:13:32.886Z,97183.30
2018-04-30T06:16:00.341Z,97194.11
2018-04-30T06:18:27.773Z,97177.55
2018-04-30T06:20:56.059Z,97178.34
2018-04-30T06:23:23.538Z,97166.38
2018-04-30T06:25:50.975Z,97178.44
2018-04-30T06:28:18.423Z,97185.11
2018-04-30T06:30:45.870Z,97205.33
2018-04-30T06:33:13.305Z,97210.91
2018-04-30T06:35:40.759Z,97207.28
2018-04-30T06:38:08.257Z,97209.33
2018-04-30T06:40:35.705Z,97214.69
2018-04-30T06:43:03.177Z,97210.47
2018-04-30T06:45:30.638Z,97214.77
2018-04-30T06:47:58.086Z,97216.12
2018-04-30T06:50:25.518Z,97214.37
2018-04-30T06:52:53.026Z,97210.94
2018-04-30T06:55:20.482Z,97196.90
2018-04-30T06:57:47.935Z,97203.36
2018-04-30T07:00:15.425Z,97209.36
2018-04-30T07:02:42.846Z,97210.97
2018-04-30T07:05:10.285Z,97211.20
2018-04-30T07:07:37.742Z,97207.53
2018-04-30T07:10:05.189Z,97189.09
2018-04-30T07:12:32.635Z,97188.28
2018-04-30T07:15:00.265Z,97177.74
2018-04-30T07:17:27.699Z,97179.95
2018-04-30T07:19:55.155Z,97192.66
2018-04-30T07:22:22.594Z,97191.83
2018-04-30T07:24:50.037Z,97195.92
2018-04-30T07:27:17.473Z,97206.02
2018-04-30T07:29:44.919Z,97192.30
2018-04-30T07:32:12.359Z,97188.59
2018-04-30T07:34:39.824Z,97202.30
2018-04-30T07:37:07.270Z,97195.91
2018-04-30T07:39:34.749Z,97198.10
2018-04-30T07:42:02.297Z,97201.63
2018-04-30T07:44:29.743Z,97208.44
2018-04-30T07:46:57.195Z,97204.70
2018-04-30T07:49:24.643Z,97206.76
2018-04-30T07:51:52.128Z,97207.20
2018-04-30T07:54:19.610Z,97221.97
2018-04-30T07:56:47.114Z,97217.93
2018-04-30T07:59:14.719Z,97217.23
2018-04-30T08:01:42.165Z,97208.86
2018-04-30T08:04:09.618Z,97220.72
2018-04-30T08:07:00.672Z,97213.34
2018-04-30T08:09:28.134Z,97212.42
2018-04-30T08:11:55.655Z,97216.49
2018-04-30T08:14:23.082Z,97227.37
2018-04-30T08:16:50.661Z,97199.48
2018-04-30T08:19:18.132Z,97193.88
2018-04-30T08:21:45.582Z,97209.45
2018-04-30T08:24:13.075Z,97204.01
2018-04-30T08:26:40.523Z,97213.14
2018-04-30T08:29:08.055Z,97216.41
2018-04-30T08:31:35.517Z,97213.67
2018-04-30T08:34:03.030Z,97213.03
2018-04-30T08:36:30.481Z,97213.47
2018-04-30T08:38:57.956Z,97210.28
2018-04-30T08:41:25.448Z,97204.52
2018-04-30T08:43:52.934Z,97203.50
2018-04-30T08:46:20.370Z,97194.72
2018-04-30T08:48:48.615Z,97198.07
2018-04-30T08:51:16.096Z,97204.64
2018-04-30T08:53:43.589Z,97199.84
2018-04-30T08:56:11.017Z,97194.41
2018-04-30T08:58:38.588Z,97193.69
2018-04-30T09:01:06.044Z,97193.12
2018-04-30T09:03:33.577Z,97188.92
2018-04-30T09:06:01.414Z,97185.69
2018-04-30T09:08:28.882Z,97180.08
2018-04-30T09:10:56.318Z,97184.59
2018-04-30T09:13:23.740Z,97184.85
2018-04-30T09:15:51.349Z,97184.36
2018-04-30T09:18:18.800Z,97162.52
2018-04-30T09:20:46.293Z,97193.48
2018-04-30T09:23:13.749Z,97194.27
2018-04-30T09:25:41.207Z,97187.99
2018-04-30T09:28:08.702Z,97200.75
2018-04-30T09:30:36.111Z,97199.87
2018-04-30T09:33:03.562Z,97188.92
2018-04-30T09:35:31.024Z,97200.08
2018-04-30T09:37:58.478Z,97199.17
2018-04-30T09:40:25.933Z,97188.63
2018-04-30T09:42:53.389Z,97182.78
2018-04-30T09:45:20.843Z,97186.41
2018-04-30T09:47:48.326Z,97183.47
2018-04-30T09:50:15.915Z,97209.11
2018-04-30T09:52:43.383Z,97193.30
2018-04-30T09:55:10.840Z,97199.03
2018-04-30T09:57:38.341Z,97182.22
2018-04-30T10:00:05.783Z,97202.74
2018-04-30T10:02:33.241Z,97194.61
2018-04-30T10:05:00.704Z,97207.64
2018-04-30T10:07:28.272Z,97196.13
2018-04-30T10:09:55.713Z,97194.88
2018-04-30T10:12:23.190Z,97198.50
2018-04-30T10:14:50.634Z,97201.81
2018-04-30T10:17:18.099Z,97196.86
2018-04-30T10:19:45.556Z,97203.72
2018-04-30T10:22:13.040Z,97197.47
2018-04-30T10:24:40.483Z,97194.09
2018-04-30T10:27:07.951Z,97186.91
2018-04-30T10:29:35.398Z,97209.53
2018-04-30T10:32:02.964Z,97197.44
2018-04-30T10:34:30.393Z,97210.13
2018-04-30T10:36:57.885Z,97188.66
2018-04-30T10:39:25.407Z,97210.06
2018-04-30T10:41:52.869Z,97184.31
2018-04-30T10:44:20.350Z,97197.53
2018-04-30T10:46:47.818Z,97198.94
2018-04-30T10:49:15.368Z,97184.52
2018-04-30T10:51:42.931Z,97177.98
2018-04-30T10:54:10.337Z,97186.68
2018-04-30T10:56:37.838Z,97200.58
2018-04-30T10:59:05.291Z,97182.85
2018-04-30T11:01:32.754Z,97171.44
2018-04-30T11:04:00.206Z,97183.89
2018-04-30T11:06:27.660Z,97172.37
2018-04-30T11:08:55.130Z,97176.48
2018-04-30T11:11:22.605Z,97164.10
2018-04-30T11:13:50.139Z,97165.77
2018-04-30T11:16:17.584Z,97179.58
2018-04-30T11:18:45.068Z,97181.37
2018-04-30T11:21:12.594Z,97177.46
2018-04-30T11:23:40.054Z,97172.68
2018-04-30T11:26:07.502Z,97168.84
2018-04-30T11:28:34.970Z,97162.81
2018-04-30T11:31:02.446Z,97171.59
2018-04-30T11:33:29.908Z,97157.75
2018-04-30T11:35:57.361Z,97155.21
2018-04-30T11:38:24.801Z,97169.39
2018-04-30T11:40:52.309Z,97166.27
2018-04-30T11:43:19.772Z,97174.80
2018-04-30T11:45:47.233Z,97178.28
2018-04-30T11:48:14.707Z,97177.29
2018-04-30T11:50:42.166Z,97166.67
2018-04-30T11:53:09.644Z,97197.14
2018-04-30T11:55:37.554Z,97180.55
2018-04-30T11:58:04.998Z,97184.12
2018-04-30T12:00:32.611Z,97193.07
2018-04-30T12:03:00.235Z,97178.64
2018-04-30T12:05:27.766Z,97187.40
2018-04-30T12:07:55.249Z,97191.27
2018-04-30T12:10:22.710Z,97189.21
2018-04-30T12:12:50.179Z,97194.86
2018-04-30T12:15:17.645Z,97193.41
2018-04-30T12:17:45.155Z,97196.39
2018-04-30T12:20:12.706Z,97194.86
2018-04-30T12:22:46.672Z,97198.48
2018-04-30T12:25:14.514Z,97192.71
2018-04-30T12:27:42.046Z,97194.77
2018-04-30T12:30:09.581Z,97179.23
2018-04-30T12:32:37.114Z,97182.04
2018-04-30T12:35:04.712Z,97181.39
2018-04-30T12:37:32.156Z,97169.72
2018-04-30T12:39:59.613Z,97189.72
2018-04-30T12:42:27.090Z,97169.82
2018-04-30T12:44:54.538Z,97192.14
2018-04-30T12:47:21.993Z,97181.63
2018-04-30T12:49:49.501Z,97202.77
2018-04-30T12:52:16.950Z,97184.37
2018-04-30T12:54:44.452Z,97197.78
2018-04-30T12:57:11.938Z,97175.95
2018-04-30T12:59:39.409Z,97195.25
2018-04-30T13:02:06.955Z,97197.71
2018-04-30T13:04:34.429Z,97198.06
2018-04-30T13:07:01.885Z,97191.36
2018-04-30T13:09:29.350Z,97200.36
2018-04-30T13:11:56.919Z,97189.02
2018-04-30T13:14:24.433Z,97213.31
2018-04-30T13:16:51.894Z,97202.53
2018-04-30T13:19:19.337Z,97193.30
2018-04-30T13:21:46.785Z,97190.60
2018-04-30T13:24:14.249Z,97195.82
2018-04-30T13:26:41.694Z,97196.39
2018-04-30T13:29:09.165Z,97195.37
2018-04-30T13:31:36.669Z,97192.59
2018-04-30T13:34:04.140Z,97188.13
2018-04-30T13:36:31.577Z,97216.63
2018-04-30T13:38:59.029Z,97203.24
2018-04-30T13:41:26.491Z,97201.74
2018-04-30T13:43:54.209Z,97199.42
2018-04-30T13:46:21.758Z,97197.11
2018-04-30T13:48:49.222Z,97215.65
2018-04-30T13:51:16.693Z,97216.66
2018-04-30T13:53:44.175Z,97214.27
2018-04-30T13:56:11.622Z,97218.16
2018-04-30T13:58:39.063Z,97206.38
2018-04-30T14:01:06.745Z,97206.25
2018-04-30T14:03:34.202Z,97213.80
2018-04-30T14:06:01.665Z,97215.62
2018-04-30T14:08:29.111Z,97212.27
2018-04-30T14:10:56.604Z,97200.02
2018-04-30T14:13:24.074Z,97213.49
2018-04-30T14:15:51.551Z,97235.45
2018-04-30T14:18:19.018Z,97229.63
2018-04-30T14:20:46.606Z,97222.39
2018-04-30T14:23:14.036Z,97221.28
2018-04-30T14:25:41.619Z,97220.89
2018-04-30T14:28:09.056Z,97233.97
2018-04-30T14:30:39.644Z,97233.75
2018-04-30T14:33:07.137Z,97245.80
2018-04-30T14:35:34.596Z,97232.08
2018-04-30T14:38:08.342Z,97235.91
2018-04-30T14:40:35.934Z,97231.00
2018-04-30T14:43:03.454Z,97252.09
2018-04-30T14:45:31.004Z,97217.37
2018-04-30T14:47:58.483Z,97246.42
2018-04-30T14:50:25.934Z,97238.31
2018-04-30T14:52:53.394Z,97252.89
2018-04-30T14:55:20.850Z,97254.16
2018-04-30T14:57:48.319Z,97255.00
2018-04-30T15:00:15.782Z,97251.22
2018-04-30T15:02:43.207Z,97260.55
2018-04-30T15:05:10.800Z,97253.51
2018-04-30T15:07:38.238Z,97255.69
2018-04-30T15:10:05.688Z,97249.81
2018-04-30T15:12:33.271Z,97244.30
2018-04-30T15:15:01.688Z,97242.28
2018-04-30T15:17:29.142Z,97245.80
2018-04-30T15:19:56.604Z,97245.09
2018-04-30T15:22:24.053Z,97236.30
2018-04-30T15:24:52.481Z,97236.55
2018-04-30T15:27:19.915Z,97236.63
2018-04-30T15:29:47.361Z,97234.79
2018-04-30T15:32:15.053Z,97234.91
2018-04-30T15:34:50.300Z,97243.97
2018-04-30T15:37:17.741Z,97240.55
2018-04-30T15:39:45.411Z,97236.13
2018-04-30T15:42:13.108Z,97235.88
2018-04-30T15:44:40.400Z,97235.69
2018-04-30T15:47:08.635Z,97239.56
2018-04-30T15:49:36.137Z,97241.57
2018-04-30T15:52:04.839Z,97244.91
2018-04-30T15:54:32.367Z,97242.67
2018-04-30T15:56:59.866Z,97255.51
2018-04-30T15:59:27.370Z,97244.58
2018-04-30T16:01:54.866Z,97249.95
2018-04-30T16:04:22.308Z,97250.58
2018-04-30T16:06:49.780Z,97254.17
2018-04-30T16:09:17.209Z,97265.98
2018-04-30T16:11:44.695Z,97263.20
2018-04-30T16:14:12.168Z,97264.38
2018-04-30T16:16:39.608Z,97266.13
2018-04-30T16:19:07.074Z,97268.28
2018-04-30T16:21:34.519Z,97272.33
2018-04-30T16:24:01.978Z,97262.67
2018-04-30T16:26:29.409Z,97261.70
2018-04-30T16:28:57.679Z,97257.65
2018-04-30T16:31:25.117Z,97259.56
2018-04-30T16:33:52.562Z,97263.19
2018-04-30T16:36:19.998Z,97284.19
2018-04-30T16:38:47.435Z,97280.45
2018-04-30T16:41:14.913Z,97291.33
2018-04-30T16:43:42.360Z,97295.58
2018-04-30T16:46:09.813Z,97294.48
2018-04-30T16:48:37.290Z,97288.41
2018-04-30T16:51:04.861Z,97301.14
2018-04-30T16:53:32.463Z,97294.94
2018-04-30T16:55:59.914Z,97304.20
2018-04-30T16:58:27.484Z,97308.72
2018-04-30T17:00:54.913Z,97308.34
2018-04-30T17:03:22.337Z,97315.39
2018-04-30T17:05:49.778Z,97316.80
2018-04-30T17:08:17.230Z,97317.97
2018-04-30T17:10:44.673Z,97305.46
2018-04-30T17:13:12.269Z,97313.85
2018-04-30T17:15:39.854Z,97320.66
2018-04-30T17:18:07.323Z,97333.45
2018-04-30T17:20:34.752Z,97335.68
2018-04-30T17:23:02.193Z,97342.73
2018-04-30T17:25:29.791Z,97333.15
2018-04-30T17:27:57.298Z,97325.54
2018-04-30T17:30:24.855Z,97326.08
2018-04-30T17:32:56.177Z,97314.50
2018-04-30T17:35:23.676Z,97325.02
2018-04-30T17:37:51.138Z,97322.86
2018-04-30T17:40:18.697Z,97330.92
2018-04-30T17:42:46.137Z,97333.53
2018-04-30T17:45:13.590Z,97347.56
2018-04-30T17:47:41.072Z,97350.55
2018-04-30T17:50:08.510Z,97354.67
2018-04-30T17:52:35.983Z,97365.28
2018-04-30T17:55:03.418Z,97366.66
2018-04-30T17:57:30.914Z,97376.08
2018-04-30T17:59:58.423Z,97383.20
2018-04-30T18:02:25.817Z,97368.03
2018-04-30T18:04:53.269Z,97366.90
2018-04-30T18:07:20.710Z,97369.36
2018-04-30T18:09:48.186Z,97370.13
2018-04-30T18:12:15.644Z,97378.24
2018-04-30T18:14:43.153Z,97386.12
2018-04-30T18:17:10.660Z,97388.82
2018-04-30T18:19:38.132Z,97392.73
2018-04-30T18:22:05.573Z,97401.11
2018-04-30T18:24:33.128Z,97409.91
2018-04-30T18:27:00.564Z,97419.33
2018-04-30T18:29:28.009Z,97425.05
2018-04-30T18:31:55.493Z,97433.28
2018-04-30T18:34:22.946Z,97433.82
2018-04-30T18:36:50.395Z,97429.72
2018-04-30T18:39:17.878Z,97433.33
2018-04-30T18:41:45.322Z,97432.39
2018-04-30T18:44:12.764Z,97433.33
2018-04-30T18:46:40.227Z,97432.37
2018-04-30T18:49:07.673Z,97443.45
2018-04-30T18:51:35.557Z,97457.67
2018-04-30T18:54:03.016Z,97453.67
2018-04-30T18:56:30.462Z,97451.05
2018-04-30T18:58:57.917Z,97453.89
2018-04-30T19:01:25.364Z,97456.75
2018-04-30T19:03:52.815Z,97460.02
2018-04-30T19:06:20.276Z,97463.05
2018-04-30T19:08:47.772Z,97466.02
2018-04-30T19:11:15.222Z,97472.80
2018-04-30T19:13:42.658Z,97488.75
2018-04-30T19:16:10.139Z,97507.30
2018-04-30T19:18:37.573Z,97525.77
2018-04-30T19:21:05.042Z,97522.76
2018-04-30T19:23:32.512Z,97522.50
2018-04-30T19:25:59.952Z,97520.33
2018-04-30T19:28:27.414Z,97536.25
2018-04-30T19:30:54.870Z,97523.19
2018-04-30T19:33:22.389Z,97524.45
2018-04-30T19:35:49.876Z,97516.70
2018-04-30T19:38:17.303Z,97526.67
2018-04-30T19:40:44.949Z,97532.11
2018-04-30T19:43:12.393Z,97533.94
2018-04-30T19:50:30.226Z,97530.53
2018-04-30T19:52:57.736Z,97533.38
2018-04-30T19:55:25.244Z,97532.56
2018-04-30T19:57:52.797Z,97532.41
2018-04-30T20:00:22.157Z,97530.36
2018-04-30T20:02:49.624Z,97533.97
2018-04-30T20:05:17.189Z,97536.19
2018-04-30T20:07:44.643Z,97540.79
2018-04-30T20:10:12.226Z,97532.08
2018-04-30T20:12:39.701Z,97539.87
2018-04-30T20:15:07.137Z,97540.34
2018-04-30T20:17:34.650Z,97535.28
2018-04-30T20:20:02.138Z,97531.17
2018-04-30T20:22:29.625Z,97521.88
2018-04-30T20:24:57.055Z,97522.97
2018-04-30T20:27:24.533Z,97522.12
2018-04-30T20:29:52.037Z,97532.59
2018-04-30T20:32:19.642Z,97533.37
2018-04-30T20:34:47.496Z,97543.47
2018-04-30T20:37:15.033Z,97544.12
2018-04-30T20:39:42.509Z,97546.84
2018-04-30T20:42:09.981Z,97559.64
2018-04-30T20:44:37.445Z,97556.58
2018-04-30T20:47:04.935Z,97551.39
2018-04-30T20:49:32.515Z,97552.28
2018-04-30T20:51:59.969Z,97549.79
2018-04-30T20:54:27.469Z,97560.66
2018-04-30T20:56:54.955Z,97557.22
2018-04-30T20:59:22.519Z,97565.97
2018-04-30T21:01:49.994Z,97563.17
2018-04-30T21:04:17.479Z,97562.71
2018-04-30T21:06:44.955Z,97570.20
2018-04-30T21:09:13.530Z,97563.27
2018-04-30T21:11:41.147Z,97576.55
2018-04-30T21:14:08.880Z,97571.75
2018-04-30T21:16:36.350Z,97577.91
2018-04-30T21:19:03.873Z,97579.19
2018-04-30T21:21:31.410Z,97574.86
2018-04-30T21:23:59.032Z,97561.95
2018-04-30T21:26:26.549Z,97570.75
2018-04-30T21:28:54.014Z,97587.45
2018-04-30T21:31:21.472Z,97594.26
2018-04-30T21:33:48.982Z,97587.98
2018-04-30T21:36:16.442Z,97580.20
2018-04-30T21:38:44.001Z,97573.77
2018-04-30T21:41:11.550Z,97570.91
2018-04-30T21:43:38.998Z,97575.44
2018-04-30T21:46:06.457Z,97573.92
2018-04-30T21:48:34.799Z,97575.94
2018-04-30T21:51:02.577Z,97571.88
2018-04-30T21:53:30.031Z,97576.05
2018-04-30T21:55:57.595Z,97576.47
2018-04-30T21:58:25.081Z,97562.96
2018-04-30T22:00:52.595Z,97591.37
2018-04-30T22:03:20.048Z,97592.64
2018-04-30T22:05:47.542Z,97584.09
2018-04-30T22:08:15.008Z,97585.68
2018-04-30T22:10:42.455Z,97575.73
2018-04-30T22:13:09.932Z,97582.52
2018-04-30T22:15:37.461Z,97596.81
2018-04-30T22:18:04.930Z,97604.16
2018-04-30T22:20:33.599Z,97606.66
2018-04-30T22:23:01.220Z,97612.15
2018-04-30T22:25:28.725Z,97613.33
2018-04-30T22:27:56.871Z,97616.16
2018-04-30T22:30:24.337Z,97611.55
2018-04-30T22:32:51.797Z,97615.05
2018-04-30T22:35:23.893Z,97614.69
2018-04-30T22:37:59.392Z,97624.14
2018-04-30T22:40:30.686Z,97632.73
2018-04-30T22:42:59.935Z,97591.72
2018-04-30T22:45:29.494Z,97600.01
2018-04-30T22:47:56.941Z,97617.88
2018-04-30T22:50:24.392Z,97640.98
2018-04-30T22:52:51.858Z,97631.25
2018-04-30T22:55:19.383Z,97637.25
2018-04-30T22:57:46.837Z,97638.11
2018-04-30T23:00:14.338Z,97624.63
2018-04-30T23:02:41.797Z,97625.63
2018-04-30T23:05:09.250Z,97639.73
2018-04-30T23:07:36.764Z,97636.73
2018-04-30T23:10:04.266Z,97625.06
2018-04-30T23:12:31.720Z,97613.57
2018-04-30T23:14:59.148Z,97614.59
2018-04-30T23:17:26.589Z,97616.31
2018-04-30T23:19:54.089Z,97619.21
2018-04-30T23:22:21.559Z,97627.20
2018-04-30T23:24:49.160Z,97633.56
2018-04-30T23:27:16.675Z,97633.25
2018-04-30T23:29:44.143Z,97635.88
2018-04-30T23:32:11.590Z,97634.25
2018-04-30T23:34:39.032Z,97638.49
2018-04-30T23:37:06.494Z,97640.58
2018-04-30T23:39:33.942Z,97651.86
2018-04-30T23:42:01.394Z,97656.23
2018-04-30T23:44:28.843Z,97657.19
2018-04-30T23:46:56.308Z,97642.49
2018-04-30T23:49:23.810Z,97631.45
2018-04-30T23:51:51.250Z,97635.89
2018-04-30T23:54:18.706Z,97639.64
2018-04-30T23:56:46.245Z,97634.20
2018-04-30T23:59:13.679Z,97638.53
